Time;durP1;ratioP1;P1;durP2;ratioP2;P2;SDS_P1;SDS_P2;PMS_P1;PMS_P2;Temp;Humidity;BMP_temperature;BMP_pressure;BME280_temperature;BME280_humidity;BME280_pressure;Samples;Min_cycle;Max_cycle;Signal;HPM_P1;HPM_P2
2023/06/02 00:01:34;;;;;;;3.28;2.13;;;15.40;94.00;;;;;;5001669;28;20229;-36
2023/06/02 00:04:02;;;;;;;4.32;2.72;;;15.50;94.10;;;;;;5003530;28;20206;-36
2023/06/02 00:06:32;;;;;;;4.43;2.60;;;15.50;94.00;;;;;;5003688;28;20201;-36
2023/06/02 00:09:06;;;;;;;6.40;2.05;;;15.50;94.40;;;;;;5004189;28;20587;-36
2023/06/02 00:11:38;;;;;;;5.00;2.45;;;15.50;94.20;;;;;;5004279;28;20201;-36
2023/06/02 00:14:06;;;;;;;5.07;2.10;;;15.50;94.10;;;;;;5004227;28;20860;-36
2023/06/02 00:16:44;;;;;;;4.80;2.40;;;15.50;94.10;;;;;;5002729;28;20590;-36
2023/06/02 00:19:16;;;;;;;5.32;2.85;;;15.50;94.20;;;;;;5003962;28;20750;-36
2023/06/02 00:21:48;;;;;;;3.42;2.45;;;15.50;94.40;;;;;;5001793;28;20230;-36
2023/06/02 00:24:16;;;;;;;6.57;2.67;;;15.50;94.30;;;;;;5003999;28;20205;-36
2023/06/02 00:26:45;;;;;;;3.38;2.50;;;15.40;94.20;;;;;;5001935;28;20709;-36
2023/06/02 00:29:15;;;;;;;3.63;2.40;;;15.40;94.20;;;;;;5007739;28;20212;-36
2023/06/02 00:31:42;;;;;;;3.08;2.08;;;15.40;94.20;;;;;;5010521;28;20263;-36
2023/06/02 00:34:12;;;;;;;5.82;2.90;;;15.40;94.00;;;;;;5003078;28;20220;-36
2023/06/02 00:36:44;;;;;;;2.80;1.90;;;15.30;94.20;;;;;;5001707;28;20224;-36
2023/06/02 00:39:16;;;;;;;5.68;2.63;;;15.40;94.00;;;;;;5003349;28;20529;-36
2023/06/02 00:41:45;;;;;;;4.07;2.47;;;15.40;94.20;;;;;;5001507;28;20328;-36
2023/06/02 00:44:15;;;;;;;5.95;2.40;;;15.30;94.10;;;;;;5003826;28;20241;-36
2023/06/02 00:46:44;;;;;;;4.75;2.55;;;15.30;94.20;;;;;;5001204;28;20729;-36
2023/06/02 00:49:19;;;;;;;5.57;2.97;;;15.30;93.90;;;;;;5002324;28;20237;-36
2023/06/02 00:51:47;;;;;;;4.85;3.03;;;15.30;94.00;;;;;;5001511;28;20580;-36
2023/06/02 00:54:17;;;;;;;4.07;2.72;;;15.30;94.20;;;;;;5003367;28;20742;-36
2023/06/02 00:56:45;;;;;;;5.60;2.88;;;15.30;94.00;;;;;;5001539;28;20593;-36
2023/06/02 00:59:15;;;;;;;4.22;2.90;;;15.20;94.00;;;;;;4993324;28;20292;-36
2023/06/02 01:01:45;;;;;;;4.35;2.67;;;15.20;94.00;;;;;;5002313;28;20315;-36
2023/06/02 01:04:12;;;;;;;3.92;2.70;;;15.20;94.00;;;;;;5006568;28;20217;-36
2023/06/02 01:06:42;;;;;;;5.78;3.00;;;15.20;94.10;;;;;;4997693;28;20220;-36
2023/06/02 01:09:19;;;;;;;2.90;2.30;;;15.20;94.00;;;;;;5018112;28;20503;-36
2023/06/02 01:11:52;;;;;;;4.78;2.60;;;15.20;93.90;;;;;;5007331;28;20255;-36
2023/06/02 01:14:21;;;;;;;4.20;2.70;;;15.20;94.10;;;;;;5018373;28;20256;-36
2023/06/02 01:16:49;;;;;;;4.60;2.70;;;15.20;94.00;;;;;;5011259;28;20205;-36
2023/06/02 01:19:20;;;;;;;4.30;2.88;;;15.20;93.90;;;;;;5014428;28;20748;-36
2023/06/02 01:21:58;;;;;;;7.22;3.53;;;15.20;93.90;;;;;;5020303;28;20237;-36
2023/06/02 01:24:29;;;;;;;4.85;3.00;;;15.20;93.90;;;;;;5007425;28;20231;-36
2023/06/02 01:26:58;;;;;;;4.10;2.88;;;15.20;93.80;;;;;;5017968;28;20202;-36
2023/06/02 01:29:32;;;;;;;5.63;3.15;;;15.20;93.90;;;;;;5005084;28;20194;-36
2023/06/02 01:32:00;;;;;;;4.80;2.63;;;15.20;93.90;;;;;;5004628;28;20296;-35
2023/06/02 01:35:02;;;;;;;6.15;2.90;;;15.20;93.80;;;;;;5004523;28;20221;-36
2023/06/02 01:37:38;;;;;;;5.43;3.17;;;15.20;94.10;;;;;;5006629;28;20291;-35
2023/06/02 01:40:07;;;;;;;6.50;3.08;;;15.20;93.90;;;;;;5006208;28;20789;-35
2023/06/02 01:42:38;;;;;;;6.35;3.03;;;15.20;94.00;;;;;;5006571;28;20630;-36
2023/06/02 01:45:09;;;;;;;6.20;3.50;;;15.00;94.00;;;;;;5006743;28;20621;-36
2023/06/02 01:47:36;;;;;;;3.42;3.03;;;15.00;94.00;;;;;;5004172;28;20197;-36
2023/06/02 01:50:04;;;;;;;7.78;3.33;;;15.00;93.90;;;;;;5006298;28;20614;-36
2023/06/02 01:52:32;;;;;;;6.53;3.42;;;14.90;93.90;;;;;;5005995;28;20291;-36
2023/06/02 01:54:59;;;;;;;9.93;3.83;;;14.90;93.80;;;;;;5006117;28;20236;-36
2023/06/02 01:57:27;;;;;;;6.25;3.22;;;14.90;93.80;;;;;;5004465;28;20757;-36
2023/06/02 01:59:55;;;;;;;7.10;2.92;;;14.80;93.80;;;;;;5004781;28;20194;-36
2023/06/02 02:02:22;;;;;;;6.28;3.03;;;14.80;93.70;;;;;;5005133;28;20285;-36
2023/06/02 02:04:51;;;;;;;4.68;3.17;;;14.80;93.60;;;;;;4988611;28;20281;-36
2023/06/02 02:07:21;;;;;;;8.35;3.60;;;14.80;93.70;;;;;;5005539;28;20305;-36
2023/06/02 02:09:48;;;;;;;4.93;3.28;;;14.80;93.60;;;;;;5005709;28;20209;-36
2023/06/02 02:12:15;;;;;;;9.02;3.78;;;14.70;93.60;;;;;;5005788;28;20233;-36
2023/06/02 02:14:43;;;;;;;6.30;3.55;;;14.70;93.60;;;;;;5005132;28;20221;-36
2023/06/02 02:17:12;;;;;;;6.13;3.40;;;14.70;93.60;;;;;;5004926;28;21626;-36
2023/06/02 02:19:44;;;;;;;5.95;3.40;;;14.70;93.60;;;;;;5020429;28;20610;-36
2023/06/02 02:22:12;;;;;;;7.22;3.72;;;14.70;93.60;;;;;;5023742;28;20248;-36
2023/06/02 02:24:41;;;;;;;8.32;3.67;;;14.60;93.70;;;;;;5025180;28;20225;-36
2023/06/02 02:27:08;;;;;;;8.15;3.50;;;14.60;93.50;;;;;;5023702;28;20290;-36
2023/06/02 02:29:36;;;;;;;8.85;4.15;;;14.60;93.70;;;;;;5023972;28;20201;-36
2023/06/02 02:32:03;;;;;;;7.53;3.72;;;14.60;93.90;;;;;;5023080;28;20302;-36
2023/06/02 02:34:38;;;;;;;5.38;2.97;;;14.50;93.70;;;;;;5025130;28;20716;-36
2023/06/02 02:37:09;;;;;;;8.65;3.70;;;14.60;93.60;;;;;;5024461;28;20223;-36
2023/06/02 02:39:38;;;;;;;8.70;2.92;;;14.60;93.80;;;;;;5007554;28;20674;-36
2023/06/02 02:42:10;;;;;;;7.07;2.70;;;14.60;93.60;;;;;;5023006;28;20336;-36
2023/06/02 02:44:40;;;;;;;8.85;2.90;;;14.60;93.70;;;;;;5025420;28;20327;-36
2023/06/02 02:47:10;;;;;;;4.30;2.67;;;14.60;93.60;;;;;;5006302;28;20213;-36
2023/06/02 02:49:39;;;;;;;4.97;3.10;;;14.60;93.70;;;;;;5023303;28;20193;-36
2023/06/02 02:52:10;;;;;;;6.45;3.28;;;14.60;93.70;;;;;;5023529;28;20667;-36
2023/06/02 02:54:37;;;;;;;5.40;3.50;;;14.60;93.60;;;;;;5023582;28;20225;-36
2023/06/02 02:57:07;;;;;;;6.13;3.83;;;14.60;93.80;;;;;;5022484;28;20224;-36
2023/06/02 02:59:35;;;;;;;5.75;3.35;;;14.60;93.70;;;;;;5024820;28;20690;-36
2023/06/02 03:02:06;;;;;;;8.20;3.67;;;14.60;93.60;;;;;;5023359;28;20227;-36
2023/06/02 03:04:34;;;;;;;6.05;3.90;;;14.60;93.70;;;;;;5024589;28;20220;-36
2023/06/02 03:07:01;;;;;;;7.25;3.65;;;14.60;93.90;;;;;;5024405;28;20572;-36
2023/06/02 03:09:29;;;;;;;5.50;3.50;;;14.50;93.90;;;;;;5023051;28;20315;-36
2023/06/02 03:11:57;;;;;;;7.60;4.13;;;14.50;93.70;;;;;;5022653;28;20220;-35
2023/06/02 03:14:31;;;;;;;6.13;3.20;;;14.50;93.80;;;;;;5015824;28;20312;-35
2023/06/02 03:17:02;;;;;;;6.72;2.85;;;14.50;93.70;;;;;;4986601;28;20210;-35
2023/06/02 03:19:29;;;;;;;7.65;3.10;;;14.50;93.80;;;;;;5004766;28;20221;-35
2023/06/02 03:22:04;;;;;;;7.40;3.10;;;14.50;93.70;;;;;;5004464;28;20240;-36
2023/06/02 03:24:34;;;;;;;6.78;3.15;;;14.50;93.70;;;;;;5004622;28;20197;-36
2023/06/02 03:27:12;;;;;;;9.98;3.42;;;14.40;93.70;;;;;;5002521;28;20225;-36
2023/06/02 03:29:43;;;;;;;7.95;3.00;;;14.40;93.80;;;;;;4988402;28;20217;-37
2023/06/02 03:32:11;;;;;;;12.25;3.60;;;14.40;93.70;;;;;;5003656;28;20248;-36
2023/06/02 03:34:44;;;;;;;6.68;3.00;;;14.30;93.80;;;;;;5002770;28;20221;-36
2023/06/02 03:37:11;;;;;;;6.80;2.90;;;14.30;93.70;;;;;;5004643;28;20208;-36
2023/06/02 03:39:39;;;;;;;9.38;3.38;;;14.30;93.70;;;;;;5004055;28;20271;-36
2023/06/02 03:42:06;;;;;;;9.43;3.22;;;14.30;93.80;;;;;;4986013;28;20273;-36
2023/06/02 03:44:33;;;;;;;5.53;3.25;;;14.20;94.00;;;;;;5003025;28;20679;-36
2023/06/02 03:47:00;;;;;;;7.97;2.95;;;14.20;93.90;;;;;;5002442;28;20275;-36
2023/06/02 03:49:29;;;;;;;8.38;3.33;;;14.20;93.60;;;;;;5004011;28;20567;-36
2023/06/02 03:51:59;;;;;;;10.93;3.58;;;14.20;93.70;;;;;;5003659;28;20623;-35
2023/06/02 03:54:28;;;;;;;4.85;3.20;;;14.20;93.90;;;;;;5004092;28;20682;-36
2023/06/02 03:57:03;;;;;;;8.45;3.25;;;14.20;93.80;;;;;;5002390;28;20221;-36
2023/06/02 03:59:30;;;;;;;8.65;3.25;;;14.20;93.80;;;;;;5004015;28;20549;-36
2023/06/02 04:01:57;;;;;;;8.00;3.10;;;14.20;93.60;;;;;;5002680;28;20733;-36
2023/06/02 04:04:27;;;;;;;10.05;4.07;;;14.20;93.70;;;;;;4985996;28;20251;-36
2023/06/02 04:07:02;;;;;;;8.55;3.08;;;14.10;93.90;;;;;;5002301;28;20752;-36
2023/06/02 04:09:31;;;;;;;8.82;3.70;;;14.00;93.70;;;;;;5018623;28;20732;-36
2023/06/02 04:12:01;;;;;;;10.30;3.47;;;14.00;93.70;;;;;;5021973;28;20706;-36
2023/06/02 04:14:31;;;;;;;9.32;2.85;;;13.90;93.60;;;;;;5022183;28;20300;-36
2023/06/02 04:17:01;;;;;;;7.00;2.60;;;13.90;93.40;;;;;;5004789;28;20529;-36
2023/06/02 04:19:31;;;;;;;8.90;3.08;;;13.90;93.40;;;;;;5023195;28;20760;-36
2023/06/02 04:22:00;;;;;;;9.55;3.22;;;13.90;93.50;;;;;;5023563;28;20332;-36
2023/06/02 04:24:30;;;;;;;9.15;3.10;;;13.90;93.20;;;;;;5021729;28;20200;-36
2023/06/02 04:27:02;;;;;;;9.93;2.85;;;13.90;93.20;;;;;;5023139;28;20224;-36
2023/06/02 04:29:33;;;;;;;9.07;2.90;;;13.80;93.20;;;;;;5023027;28;20209;-36
2023/06/02 04:32:02;;;;;;;5.88;2.70;;;13.80;93.30;;;;;;5022189;28;20212;-36
2023/06/02 04:34:32;;;;;;;9.82;3.08;;;13.90;93.20;;;;;;5023446;28;20296;-36
2023/06/02 04:36:59;;;;;;;6.95;2.70;;;13.90;93.10;;;;;;5023696;28;20769;-36
2023/06/02 04:39:26;;;;;;;7.87;3.13;;;13.90;93.10;;;;;;5026354;28;20239;-36
2023/06/02 04:41:59;;;;;;;9.53;3.10;;;13.90;93.10;;;;;;5027279;28;20706;-36
2023/06/02 04:44:29;;;;;;;6.83;2.77;;;14.00;93.20;;;;;;5026354;28;20204;-43
2023/06/02 04:46:56;;;;;;;7.93;2.90;;;14.00;93.20;;;;;;5025107;28;20279;-36
2023/06/02 04:49:24;;;;;;;8.97;2.67;;;14.00;93.20;;;;;;5027370;28;20280;-37
2023/06/02 04:51:55;;;;;;;14.80;3.28;;;14.00;93.20;;;;;;5025440;28;20197;-36
2023/06/02 04:54:25;;;;;;;14.20;3.10;;;14.00;93.20;;;;;;5027032;28;20228;-36
2023/06/02 04:56:57;;;;;;;12.40;2.92;;;14.00;93.30;;;;;;5025425;28;20298;-36
2023/06/02 04:59:25;;;;;;;10.63;3.10;;;14.00;93.30;;;;;;5021454;28;20635;-37
2023/06/02 05:01:55;;;;;;;13.00;3.25;;;14.00;93.40;;;;;;5007576;28;20251;-36
2023/06/02 05:04:26;;;;;;;7.22;3.22;;;14.00;93.30;;;;;;5004749;28;21001;-36
2023/06/02 05:06:59;;;;;;;11.23;3.55;;;14.10;93.30;;;;;;5015450;28;20541;-36
2023/06/02 05:09:28;;;;;;;9.35;2.70;;;14.10;93.40;;;;;;5013671;28;20701;-37
2023/06/02 05:11:56;;;;;;;8.18;2.90;;;14.00;93.40;;;;;;5021996;28;20201;-37
2023/06/02 05:14:25;;;;;;;8.05;3.28;;;14.10;93.40;;;;;;5025335;28;20351;-37
2023/06/02 05:16:55;;;;;;;9.15;3.85;;;14.10;93.40;;;;;;5004769;28;20201;-36
2023/06/02 05:19:25;;;;;;;7.63;3.10;;;14.10;93.40;;;;;;5021160;28;20706;-36
2023/06/02 05:21:57;;;;;;;15.50;4.43;;;14.10;93.50;;;;;;5013709;28;20216;-36
2023/06/02 05:24:24;;;;;;;11.90;3.63;;;14.10;93.40;;;;;;5011506;28;20297;-37
2023/06/02 05:26:51;;;;;;;9.88;3.40;;;14.10;93.50;;;;;;5013630;28;20205;-36
2023/06/02 05:29:21;;;;;;;8.57;2.90;;;14.10;93.50;;;;;;5007581;28;20640;-37
2023/06/02 05:31:50;;;;;;;10.37;3.40;;;14.10;93.50;;;;;;5010340;28;20292;-37
2023/06/02 05:34:20;;;;;;;11.18;3.30;;;14.00;93.40;;;;;;5014104;28;20267;-37
2023/06/02 05:36:47;;;;;;;9.93;3.60;;;14.00;93.50;;;;;;5003917;28;20739;-37
2023/06/02 05:39:16;;;;;;;10.23;3.03;;;14.10;93.60;;;;;;5005931;28;20316;-37
2023/06/02 05:41:46;;;;;;;10.27;3.40;;;14.10;93.50;;;;;;5004199;28;20222;-37
2023/06/02 05:44:13;;;;;;;13.60;4.00;;;14.10;93.50;;;;;;5011733;28;20303;-37
2023/06/02 05:46:45;;;;;;;8.68;3.40;;;14.10;93.70;;;;;;5003093;28;20205;-36
2023/06/02 05:49:15;;;;;;;9.50;3.47;;;14.10;93.70;;;;;;5004875;28;20214;-36
2023/06/02 05:51:42;;;;;;;7.72;2.88;;;14.10;93.60;;;;;;5005746;28;20256;-36
2023/06/02 05:54:10;;;;;;;11.98;3.70;;;14.20;93.60;;;;;;5005791;28;20682;-38
2023/06/02 05:56:39;;;;;;;9.38;2.83;;;14.20;93.70;;;;;;5006756;28;20236;-38
2023/06/02 05:59:12;;;;;;;10.90;3.38;;;14.20;93.70;;;;;;5016499;28;20205;-38
2023/06/02 06:01:47;;;;;;;7.45;3.08;;;14.20;93.70;;;;;;5024440;28;20710;-38
2023/06/02 06:04:14;;;;;;;10.48;2.80;;;14.20;93.60;;;;;;5024205;28;20286;-38
2023/06/02 06:06:46;;;;;;;9.70;2.83;;;14.10;93.70;;;;;;5007367;28;20209;-38
2023/06/02 06:09:14;;;;;;;10.52;3.22;;;14.00;93.70;;;;;;5022729;28;20201;-38
2023/06/02 06:11:41;;;;;;;7.82;2.45;;;14.00;93.60;;;;;;5024135;28;20200;-38
2023/06/02 06:14:09;;;;;;;7.63;2.92;;;14.00;93.50;;;;;;4997124;28;20597;-38
2023/06/02 06:16:38;;;;;;;9.50;3.30;;;14.00;93.50;;;;;;5013370;28;20698;-38
2023/06/02 06:19:05;;;;;;;11.45;3.08;;;14.00;93.60;;;;;;5018020;28;20211;-38
2023/06/02 06:21:38;;;;;;;10.10;4.03;;;14.00;93.50;;;;;;5014477;28;22111;-38
2023/06/02 06:24:07;;;;;;;9.98;3.47;;;14.00;93.40;;;;;;5017873;28;20211;-38
2023/06/02 06:26:37;;;;;;;16.27;4.00;;;14.00;93.50;;;;;;5024819;28;20738;-38
2023/06/02 06:29:04;;;;;;;8.75;3.50;;;14.00;93.50;;;;;;5001808;28;21068;-38
2023/06/02 06:31:32;;;;;;;15.05;3.58;;;14.00;93.50;;;;;;5021892;28;20286;-38
2023/06/02 06:34:02;;;;;;;6.43;3.03;;;14.10;93.50;;;;;;5023545;28;20655;-38
2023/06/02 06:36:29;;;;;;;10.93;3.10;;;14.10;93.50;;;;;;5021670;28;20213;-38
2023/06/02 06:39:02;;;;;;;11.20;3.40;;;14.10;93.70;;;;;;5024695;28;20651;-38
2023/06/02 06:41:29;;;;;;;9.40;2.95;;;14.10;93.60;;;;;;5005188;28;20210;-38
2023/06/02 06:43:59;;;;;;;8.88;3.00;;;14.10;93.60;;;;;;5012189;28;20236;-38
2023/06/02 06:46:29;;;;;;;11.13;3.55;;;14.10;93.60;;;;;;5010362;28;20202;-38
2023/06/02 06:48:59;;;;;;;7.95;3.40;;;14.10;93.70;;;;;;5023286;28;20198;-38
2023/06/02 06:51:28;;;;;;;6.95;3.47;;;14.10;93.60;;;;;;5021281;28;20221;-38
2023/06/02 06:53:58;;;;;;;8.48;3.28;;;14.20;93.70;;;;;;5021513;28;20294;-38
2023/06/02 06:56:25;;;;;;;11.93;3.07;;;14.20;93.60;;;;;;5019314;28;20196;-36
2023/06/02 06:58:55;;;;;;;10.17;3.33;;;14.30;93.60;;;;;;4996022;28;20204;-36
2023/06/02 07:01:22;;;;;;;9.57;3.17;;;14.30;93.70;;;;;;5015852;28;20923;-36
2023/06/02 07:03:52;;;;;;;9.75;3.63;;;14.40;93.70;;;;;;5018978;28;20664;-36
2023/06/02 07:06:22;;;;;;;8.98;3.10;;;14.40;93.70;;;;;;5020438;28;20613;-36
2023/06/02 07:08:49;;;;;;;12.98;4.20;;;14.40;93.60;;;;;;5023894;28;20229;-36
2023/06/02 07:11:19;;;;;;;8.07;3.42;;;14.40;93.70;;;;;;5021014;28;20200;-36
2023/06/02 07:13:49;;;;;;;8.48;3.40;;;14.40;93.70;;;;;;5003939;28;20197;-36
2023/06/02 07:16:21;;;;;;;12.77;3.25;;;14.50;93.70;;;;;;5021320;28;20204;-36
2023/06/02 07:18:49;;;;;;;8.40;3.00;;;14.60;93.80;;;;;;5022248;28;20323;-36
2023/06/02 07:21:18;;;;;;;7.93;3.50;;;14.50;93.80;;;;;;5019438;28;20247;-36
2023/06/02 07:23:45;;;;;;;7.38;3.25;;;14.50;93.80;;;;;;5002442;28;20307;-36
2023/06/02 07:26:15;;;;;;;9.50;3.30;;;14.60;93.80;;;;;;5020989;28;20220;-36
2023/06/02 07:28:47;;;;;;;9.80;3.60;;;14.70;93.90;;;;;;5020911;28;20208;-36
2023/06/02 07:31:14;;;;;;;7.80;3.38;;;14.70;93.90;;;;;;5023115;28;20204;-36
2023/06/02 07:33:44;;;;;;;6.75;3.20;;;14.70;93.80;;;;;;5019675;28;20209;-37
2023/06/02 07:36:14;;;;;;;8.98;3.65;;;14.80;93.90;;;;;;5019850;28;20208;-36
2023/06/02 07:38:41;;;;;;;13.23;3.60;;;14.80;94.00;;;;;;5023166;28;20216;-36
2023/06/02 07:41:10;;;;;;;9.35;3.65;;;14.90;93.90;;;;;;5023029;28;20295;-36
2023/06/02 07:43:43;;;;;;;8.93;3.60;;;14.90;93.90;;;;;;5018655;28;20339;-36
2023/06/02 07:46:12;;;;;;;8.50;3.55;;;14.90;93.90;;;;;;5008019;28;20749;-36
2023/06/02 07:48:40;;;;;;;9.48;3.97;;;14.90;93.90;;;;;;5013315;28;20627;-36
2023/06/02 07:51:09;;;;;;;8.48;3.85;;;14.90;94.00;;;;;;5020469;28;20200;-37
2023/06/02 07:53:37;;;;;;;10.00;4.20;;;15.00;94.00;;;;;;5018250;28;20655;-36
2023/06/02 07:56:04;;;;;;;10.95;3.80;;;15.00;94.00;;;;;;5018680;28;20219;-36
2023/06/02 07:58:34;;;;;;;10.73;3.63;;;15.00;94.00;;;;;;5000819;28;20212;-36
2023/06/02 08:01:04;;;;;;;8.45;3.97;;;15.10;94.00;;;;;;5019315;28;20312;-36
2023/06/02 08:03:32;;;;;;;13.30;3.75;;;15.10;94.00;;;;;;5013703;28;20235;-37
2023/06/02 08:06:01;;;;;;;12.82;4.18;;;15.10;94.00;;;;;;5018070;28;20252;-36
2023/06/02 08:08:29;;;;;;;10.68;4.18;;;15.20;94.40;;;;;;5019380;28;20239;-36
2023/06/02 08:11:00;;;;;;;13.10;4.28;;;15.10;94.10;;;;;;5020310;28;20209;-36
2023/06/02 08:13:30;;;;;;;12.57;4.40;;;15.20;94.10;;;;;;5020153;28;20675;-36
2023/06/02 08:15:59;;;;;;;7.45;3.92;;;15.20;94.10;;;;;;5018891;28;20207;-36
2023/06/02 08:18:47;;;;;;;10.98;3.72;;;15.30;94.10;;;;;;5021172;28;20287;-36
2023/06/02 08:21:15;;;;;;;9.85;4.25;;;15.30;94.20;;;;;;5008691;28;20264;-36
2023/06/02 08:23:43;;;;;;;11.15;4.07;;;15.30;94.10;;;;;;5020415;28;20471;-36
2023/06/02 08:26:12;;;;;;;9.70;4.18;;;15.40;94.20;;;;;;5019122;28;20232;-36
2023/06/02 08:28:42;;;;;;;8.13;3.95;;;15.40;94.20;;;;;;5020540;28;20680;-36
2023/06/02 08:31:14;;;;;;;12.27;5.05;;;15.50;94.30;;;;;;5009047;28;20627;-37
2023/06/02 08:33:42;;;;;;;9.30;4.47;;;15.60;94.30;;;;;;5021438;28;20211;-36
2023/06/02 08:36:17;;;;;;;7.43;3.83;;;15.70;94.40;;;;;;5019941;28;20220;-36
2023/06/02 08:38:51;;;;;;;9.32;3.30;;;15.80;94.30;;;;;;5007218;28;20299;-37
2023/06/02 08:41:38;;;;;;;6.93;3.80;;;15.90;94.40;;;;;;5013821;28;20732;-36
2023/06/02 08:44:09;;;;;;;5.80;3.85;;;16.00;94.50;;;;;;5019250;28;20241;-36
2023/06/02 08:46:36;;;;;;;9.20;4.00;;;16.00;94.30;;;;;;5021098;28;20561;-36
2023/06/02 08:49:07;;;;;;;11.40;4.25;;;16.00;94.30;;;;;;5020915;28;20286;-36
2023/06/02 08:51:42;;;;;;;8.23;3.80;;;16.10;94.30;;;;;;5018763;28;20204;-36
2023/06/02 08:54:12;;;;;;;6.60;3.20;;;16.20;94.30;;;;;;5017659;28;20587;-36
2023/06/02 08:56:41;;;;;;;8.90;3.70;;;16.20;94.20;;;;;;5004725;28;21071;-36
2023/06/02 08:59:08;;;;;;;8.48;4.15;;;16.20;94.20;;;;;;5010809;28;20682;-36
2023/06/02 09:01:40;;;;;;;7.07;3.47;;;16.30;94.30;;;;;;5019911;28;20274;-36
2023/06/02 09:04:10;;;;;;;7.85;3.88;;;16.30;94.00;;;;;;5021280;28;20314;-36
2023/06/02 09:06:37;;;;;;;9.57;3.63;;;16.30;93.80;;;;;;5019177;28;20236;-36
2023/06/02 09:09:06;;;;;;;6.55;3.90;;;16.30;93.90;;;;;;5021125;28;20228;-36
2023/06/02 09:11:33;;;;;;;8.80;3.22;;;16.30;94.00;;;;;;5003909;28;20220;-36
2023/06/02 09:14:01;;;;;;;7.50;3.63;;;16.30;94.10;;;;;;5019888;28;20219;-36
2023/06/02 09:16:40;;;;;;;9.50;3.83;;;16.30;94.10;;;;;;5019781;28;20213;-36
2023/06/02 09:19:10;;;;;;;11.00;3.55;;;16.40;94.10;;;;;;5021972;28;20197;-37
2023/06/02 09:21:38;;;;;;;8.68;3.80;;;16.50;94.10;;;;;;5019811;28;20228;-36
2023/06/02 09:24:08;;;;;;;7.32;3.60;;;16.60;94.20;;;;;;5022828;28;20259;-36
2023/06/02 09:26:53;;;;;;;12.75;4.82;;;16.60;94.20;;;;;;5019339;28;20694;-36
2023/06/02 09:29:20;;;;;;;7.20;3.67;;;16.70;94.10;;;;;;5013442;28;20224;-36
2023/06/02 09:31:52;;;;;;;9.98;3.42;;;16.80;94.20;;;;;;5021979;28;20201;-40
2023/06/02 09:34:26;;;;;;;6.65;3.35;;;16.80;94.10;;;;;;5023796;28;20307;-36
2023/06/02 09:37:07;;;;;;;9.90;3.50;;;16.90;94.10;;;;;;5005842;28;20311;-36
2023/06/02 09:39:41;;;;;;;7.55;3.30;;;17.00;94.10;;;;;;5004420;28;20209;-36
2023/06/02 09:42:11;;;;;;;11.15;3.58;;;16.90;94.00;;;;;;5023013;28;20207;-36
2023/06/02 09:44:38;;;;;;;8.40;3.70;;;16.90;93.90;;;;;;5018586;28;20229;-36
2023/06/02 09:47:25;;;;;;;12.23;3.50;;;16.90;93.70;;;;;;4988135;28;20198;-36
2023/06/02 09:50:00;;;;;;;10.70;4.30;;;17.00;93.70;;;;;;5020285;28;20205;-37
2023/06/02 09:52:29;;;;;;;6.78;3.53;;;17.00;93.70;;;;;;5024483;28;20787;-36
2023/06/02 09:54:57;;;;;;;8.10;3.00;;;16.90;93.70;;;;;;5020318;28;20318;-36
2023/06/02 09:57:27;;;;;;;8.38;3.85;;;16.90;93.70;;;;;;5002699;28;20212;-36
2023/06/02 09:59:58;;;;;;;10.05;3.85;;;17.00;93.90;;;;;;5023095;28;20304;-37
2023/06/02 10:02:29;;;;;;;12.35;3.85;;;17.00;93.70;;;;;;5006124;28;20313;-37
2023/06/02 10:04:56;;;;;;;11.10;3.90;;;17.00;93.60;;;;;;5020846;28;20216;-36
2023/06/02 10:07:42;;;;;;;8.20;3.55;;;17.00;93.60;;;;;;5023029;28;20679;-36
2023/06/02 10:10:18;;;;;;;8.48;3.38;;;17.00;93.30;;;;;;5024540;28;20319;-36
2023/06/02 10:13:09;;;;;;;10.52;3.70;;;16.90;93.40;;;;;;5019399;28;20688;-36
2023/06/02 10:16:09;;;;;;;10.38;3.40;;;16.80;92.60;;;;;;5018219;28;20209;-36
2023/06/02 10:18:58;;;;;;;10.55;3.33;;;16.60;93.10;;;;;;5021014;28;20205;-36
2023/06/02 10:21:25;;;;;;;7.20;2.63;;;16.60;93.10;;;;;;5002925;28;20225;-36
2023/06/02 10:24:05;;;;;;;7.13;3.33;;;16.60;93.30;;;;;;5021061;28;20248;-36
2023/06/02 10:26:38;;;;;;;10.85;3.80;;;16.70;93.40;;;;;;5020780;28;20193;-36
2023/06/02 10:29:08;;;;;;;10.55;3.15;;;16.60;92.80;;;;;;5022627;28;20216;-36
2023/06/02 10:31:38;;;;;;;9.38;3.97;;;16.60;93.30;;;;;;5023257;28;20212;-36
2023/06/02 10:34:07;;;;;;;8.25;3.70;;;16.70;93.30;;;;;;5022036;28;20296;-36
2023/06/02 10:36:57;;;;;;;10.70;4.32;;;16.70;93.20;;;;;;5015786;28;20215;-36
2023/06/02 10:39:41;;;;;;;11.55;3.70;;;16.70;93.00;;;;;;5009497;28;20217;-36
2023/06/02 10:42:14;;;;;;;7.80;4.00;;;16.70;93.00;;;;;;5023510;28;20216;-37
2023/06/02 10:44:41;;;;;;;8.45;3.58;;;16.80;93.20;;;;;;5015968;28;20232;-37
2023/06/02 10:47:20;;;;;;;11.45;4.00;;;16.80;93.20;;;;;;5019902;28;20205;-36
2023/06/02 10:50:01;;;;;;;12.50;3.83;;;16.80;93.20;;;;;;5021677;28;20224;-36
2023/06/02 10:52:34;;;;;;;11.35;3.88;;;16.80;93.20;;;;;;5022478;28;20256;-36
2023/06/02 10:55:08;;;;;;;8.70;3.50;;;16.70;93.10;;;;;;5014901;28;20200;-36
2023/06/02 10:58:11;;;;;;;8.88;4.30;;;16.70;93.40;;;;;;5020489;28;20300;-38
2023/06/02 11:00:43;;;;;;;9.80;3.85;;;16.70;92.90;;;;;;4987677;28;20209;-36
2023/06/02 11:03:21;;;;;;;9.73;3.90;;;16.70;92.90;;;;;;5021434;28;20312;-36
2023/06/02 11:06:09;;;;;;;12.38;4.18;;;16.70;92.70;;;;;;5022055;28;20736;-36
2023/06/02 11:08:37;;;;;;;9.15;3.55;;;16.70;93.10;;;;;;5017400;28;20208;-38
2023/06/02 11:11:04;;;;;;;12.57;3.75;;;16.70;93.20;;;;;;5018826;28;20707;-37
2023/06/02 11:13:55;;;;;;;8.32;3.40;;;16.70;93.10;;;;;;5020722;28;20225;-38
2023/06/02 11:16:26;;;;;;;11.25;3.88;;;16.80;93.30;;;;;;5020832;28;20709;-38
2023/06/02 11:18:54;;;;;;;9.63;3.95;;;16.90;93.40;;;;;;5014776;28;20233;-39
2023/06/02 11:21:28;;;;;;;8.88;3.75;;;16.90;93.40;;;;;;5010374;28;20257;-39
2023/06/02 11:23:58;;;;;;;12.93;4.25;;;17.00;93.50;;;;;;5018936;28;20225;-39
2023/06/02 11:26:27;;;;;;;8.88;4.20;;;17.10;93.50;;;;;;5015759;28;20208;-38
2023/06/02 11:29:14;;;;;;;10.35;4.03;;;17.10;93.30;;;;;;5009786;28;20217;-38
2023/06/02 11:31:50;;;;;;;8.45;4.15;;;17.10;93.10;;;;;;5020738;28;20303;-38
2023/06/02 11:34:17;;;;;;;11.35;4.50;;;17.20;93.30;;;;;;5010790;28;20750;-38
2023/06/02 11:36:48;;;;;;;12.27;4.22;;;17.20;93.30;;;;;;5015594;28;20671;-38
2023/06/02 11:39:16;;;;;;;9.88;4.63;;;17.20;93.40;;;;;;5020768;28;20295;-38
2023/06/02 11:41:57;;;;;;;9.07;4.50;;;17.30;93.50;;;;;;5022378;28;20205;-38
2023/06/02 11:44:29;;;;;;;12.18;4.55;;;17.40;93.20;;;;;;5015582;28;20667;-38
2023/06/02 11:46:56;;;;;;;11.75;4.30;;;17.40;93.30;;;;;;5000594;28;20236;-38
2023/06/02 11:49:35;;;;;;;12.13;4.35;;;17.40;93.00;;;;;;5019456;28;20208;-38
2023/06/02 11:52:05;;;;;;;9.52;3.65;;;17.40;93.30;;;;;;5021929;28;20537;-41
2023/06/02 11:54:51;;;;;;;8.18;3.65;;;17.50;93.40;;;;;;5015954;28;20213;-38
2023/06/02 11:57:33;;;;;;;10.40;4.65;;;17.50;93.10;;;;;;5019483;28;20247;-39
2023/06/02 12:00:09;;;;;;;11.38;4.35;;;17.50;92.70;;;;;;5020894;28;20209;-38
2023/06/02 12:02:40;;;;;;;13.90;3.88;;;17.50;93.10;;;;;;5006102;28;20216;-38
2023/06/02 12:05:34;;;;;;;7.28;3.67;;;17.50;93.20;;;;;;5015229;28;20223;-38
2023/06/02 12:08:11;;;;;;;11.32;4.05;;;17.50;93.30;;;;;;5022071;28;20204;-38
2023/06/02 12:10:41;;;;;;;9.02;3.47;;;17.60;93.30;;;;;;5003243;28;20580;-38
2023/06/02 12:13:21;;;;;;;10.43;4.28;;;17.60;93.50;;;;;;5003840;28;20266;-38
2023/06/02 12:15:57;;;;;;;12.13;4.18;;;17.70;93.50;;;;;;5018514;28;20212;-38
2023/06/02 12:18:32;;;;;;;12.13;4.18;;;17.70;93.20;;;;;;5016403;28;20256;-38
2023/06/02 12:21:00;;;;;;;10.93;4.20;;;17.80;93.30;;;;;;5021650;28;20225;-38
2023/06/02 12:23:46;;;;;;;9.77;3.90;;;17.80;92.90;;;;;;5021254;28;20694;-38
2023/06/02 12:26:14;;;;;;;12.23;4.20;;;17.80;93.30;;;;;;5014084;28;20308;-37
2023/06/02 12:28:46;;;;;;;9.15;4.28;;;17.80;93.00;;;;;;5019022;28;20961;-38
2023/06/02 12:31:18;;;;;;;13.85;4.90;;;17.90;93.30;;;;;;5019631;28;20267;-38
2023/06/02 12:33:48;;;;;;;11.60;4.47;;;17.90;93.40;;;;;;5022643;28;20211;-38
2023/06/02 12:36:17;;;;;;;12.82;4.40;;;18.10;93.60;;;;;;5017108;28;20858;-39
2023/06/02 12:38:44;;;;;;;13.95;4.68;;;18.10;93.40;;;;;;5019871;28;20216;-38
2023/06/02 12:41:17;;;;;;;10.88;3.88;;;18.20;93.40;;;;;;5010436;28;20209;-37
2023/06/02 12:43:48;;;;;;;12.57;3.90;;;18.20;93.40;;;;;;4991070;28;20695;-39
2023/06/02 12:46:18;;;;;;;10.73;4.20;;;18.30;93.10;;;;;;5017671;28;20592;-38
2023/06/02 12:48:47;;;;;;;7.95;3.72;;;18.20;93.00;;;;;;5004657;28;20571;-38
2023/06/02 12:51:15;;;;;;;9.05;3.63;;;18.20;92.90;;;;;;5017704;28;20201;-37
2023/06/02 12:53:42;;;;;;;10.48;3.80;;;18.30;93.40;;;;;;5010256;28;20250;-37
2023/06/02 12:56:15;;;;;;;8.35;3.53;;;18.40;93.40;;;;;;5017608;28;20651;-39
2023/06/02 12:58:43;;;;;;;7.55;3.95;;;18.40;93.40;;;;;;5021134;28;20201;-37
2023/06/02 13:01:15;;;;;;;11.05;4.10;;;18.50;93.50;;;;;;5021785;28;20296;-37
2023/06/02 13:03:49;;;;;;;11.05;4.18;;;18.50;93.20;;;;;;5015632;28;20290;-38